sensor_id;sensor_type;location;lat;lon;timestamp;temperature;humidity
51811;DHT22;52468;40.116;18.296;2022-07-10T00:01:00;23.30;62.00
51811;DHT22;52468;40.116;18.296;2022-07-10T00:03:28;23.30;62.00
51811;DHT22;52468;40.116;18.296;2022-07-10T00:05:56;23.20;61.70
51811;DHT22;52468;40.116;18.296;2022-07-10T00:08:24;23.20;61.40
51811;DHT22;52468;40.116;18.296;2022-07-10T00:10:52;23.20;61.30
51811;DHT22;52468;40.116;18.296;2022-07-10T00:13:20;23.20;61.10
51811;DHT22;52468;40.116;18.296;2022-07-10T00:15:48;23.10;61.20
51811;DHT22;52468;40.116;18.296;2022-07-10T00:18:16;23.10;61.20
51811;DHT22;52468;40.116;18.296;2022-07-10T00:20:43;23.00;61.70
51811;DHT22;52468;40.116;18.296;2022-07-10T00:23:11;23.00;61.80
51811;DHT22;52468;40.116;18.296;2022-07-10T00:25:39;22.90;61.90
51811;DHT22;52468;40.116;18.296;2022-07-10T00:28:07;22.90;62.10
51811;DHT22;52468;40.116;18.296;2022-07-10T00:30:35;22.90;62.30
51811;DHT22;52468;40.116;18.296;2022-07-10T00:33:04;22.90;62.40
51811;DHT22;52468;40.116;18.296;2022-07-10T00:35:32;22.80;62.40
51811;DHT22;52468;40.116;18.296;2022-07-10T00:37:59;22.80;62.40
51811;DHT22;52468;40.116;18.296;2022-07-10T00:40:27;22.80;62.40
51811;DHT22;52468;40.116;18.296;2022-07-10T00:42:55;22.70;62.50
51811;DHT22;52468;40.116;18.296;2022-07-10T00:45:23;22.80;62.50
51811;DHT22;52468;40.116;18.296;2022-07-10T00:47:51;22.80;62.40
51811;DHT22;52468;40.116;18.296;2022-07-10T00:50:18;22.80;62.40
51811;DHT22;52468;40.116;18.296;2022-07-10T00:52:46;22.70;62.30
51811;DHT22;52468;40.116;18.296;2022-07-10T00:55:14;22.70;62.30
51811;DHT22;52468;40.116;18.296;2022-07-10T00:57:42;22.60;62.40
51811;DHT22;52468;40.116;18.296;2022-07-10T01:00:10;22.60;62.40
51811;DHT22;52468;40.116;18.296;2022-07-10T01:02:43;22.60;62.50
51811;DHT22;52468;40.116;18.296;2022-07-10T01:05:11;22.60;62.40
51811;DHT22;52468;40.116;18.296;2022-07-10T01:07:39;22.60;62.50
51811;DHT22;52468;40.116;18.296;2022-07-10T01:10:07;22.60;62.30
51811;DHT22;52468;40.116;18.296;2022-07-10T01:12:35;22.50;62.50
51811;DHT22;52468;40.116;18.296;2022-07-10T01:15:04;22.50;62.50
51811;DHT22;52468;40.116;18.296;2022-07-10T01:17:32;22.50;62.60
51811;DHT22;52468;40.116;18.296;2022-07-10T01:20:05;22.50;62.70
51811;DHT22;52468;40.116;18.296;2022-07-10T01:22:34;22.50;62.50
51811;DHT22;52468;40.116;18.296;2022-07-10T01:25:02;22.50;62.60
51811;DHT22;52468;40.116;18.296;2022-07-10T01:27:31;22.40;62.70
51811;DHT22;52468;40.116;18.296;2022-07-10T01:29:59;22.50;62.70
51811;DHT22;52468;40.116;18.296;2022-07-10T01:32:35;22.50;62.70
51811;DHT22;52468;40.116;18.296;2022-07-10T01:35:03;22.40;62.90
51811;DHT22;52468;40.116;18.296;2022-07-10T01:37:32;22.40;62.80
51811;DHT22;52468;40.116;18.296;2022-07-10T01:39:59;22.40;63.00
51811;DHT22;52468;40.116;18.296;2022-07-10T01:42:27;22.30;63.10
51811;DHT22;52468;40.116;18.296;2022-07-10T01:44:55;22.40;63.10
51811;DHT22;52468;40.116;18.296;2022-07-10T01:47:25;22.30;63.30
51811;DHT22;52468;40.116;18.296;2022-07-10T01:49:55;22.30;63.30
51811;DHT22;52468;40.116;18.296;2022-07-10T01:52:23;22.30;63.40
51811;DHT22;52468;40.116;18.296;2022-07-10T01:54:50;22.30;63.30
51811;DHT22;52468;40.116;18.296;2022-07-10T01:57:18;22.30;63.40
51811;DHT22;52468;40.116;18.296;2022-07-10T01:59:46;22.30;63.60
51811;DHT22;52468;40.116;18.296;2022-07-10T02:02:14;22.30;63.60
51811;DHT22;52468;40.116;18.296;2022-07-10T02:04:42;22.30;63.50
51811;DHT22;52468;40.116;18.296;2022-07-10T02:07:14;22.30;63.40
51811;DHT22;52468;40.116;18.296;2022-07-10T02:09:43;22.30;63.30
51811;DHT22;52468;40.116;18.296;2022-07-10T02:12:14;22.30;63.20
51811;DHT22;52468;40.116;18.296;2022-07-10T02:14:42;22.30;63.10
51811;DHT22;52468;40.116;18.296;2022-07-10T02:17:10;22.30;63.00
51811;DHT22;52468;40.116;18.296;2022-07-10T02:19:38;22.30;62.90
51811;DHT22;52468;40.116;18.296;2022-07-10T02:22:06;22.30;62.80
51811;DHT22;52468;40.116;18.296;2022-07-10T02:24:34;22.30;62.70
51811;DHT22;52468;40.116;18.296;2022-07-10T02:27:02;22.30;62.80
51811;DHT22;52468;40.116;18.296;2022-07-10T02:29:31;22.30;62.80
51811;DHT22;52468;40.116;18.296;2022-07-10T02:31:58;22.30;62.70
51811;DHT22;52468;40.116;18.296;2022-07-10T02:34:26;22.30;62.60
51811;DHT22;52468;40.116;18.296;2022-07-10T02:36:54;22.20;62.70
51811;DHT22;52468;40.116;18.296;2022-07-10T02:39:22;22.20;62.70
51811;DHT22;52468;40.116;18.296;2022-07-10T02:41:50;22.20;62.70
51811;DHT22;52468;40.116;18.296;2022-07-10T02:44:18;22.20;62.50
51811;DHT22;52468;40.116;18.296;2022-07-10T02:46:46;22.20;62.50
51811;DHT22;52468;40.116;18.296;2022-07-10T02:49:14;22.20;62.30
51811;DHT22;52468;40.116;18.296;2022-07-10T02:51:42;22.20;62.20
51811;DHT22;52468;40.116;18.296;2022-07-10T02:54:10;22.20;62.20
51811;DHT22;52468;40.116;18.296;2022-07-10T02:56:37;22.20;62.00
51811;DHT22;52468;40.116;18.296;2022-07-10T02:59:05;22.10;61.80
51811;DHT22;52468;40.116;18.296;2022-07-10T03:01:34;22.10;61.60
51811;DHT22;52468;40.116;18.296;2022-07-10T03:04:02;22.10;61.70
51811;DHT22;52468;40.116;18.296;2022-07-10T03:06:30;22.10;61.50
51811;DHT22;52468;40.116;18.296;2022-07-10T03:08:58;22.10;61.80
51811;DHT22;52468;40.116;18.296;2022-07-10T03:11:26;22.00;62.10
51811;DHT22;52468;40.116;18.296;2022-07-10T03:13:53;21.90;62.70
51811;DHT22;52468;40.116;18.296;2022-07-10T03:16:21;21.70;63.70
51811;DHT22;52468;40.116;18.296;2022-07-10T03:18:49;21.60;64.70
51811;DHT22;52468;40.116;18.296;2022-07-10T03:21:17;21.50;65.80
51811;DHT22;52468;40.116;18.296;2022-07-10T03:23:45;21.30;66.60
51811;DHT22;52468;40.116;18.296;2022-07-10T03:26:12;21.20;67.10
51811;DHT22;52468;40.116;18.296;2022-07-10T03:28:40;21.10;67.60
51811;DHT22;52468;40.116;18.296;2022-07-10T03:31:09;21.10;67.90
51811;DHT22;52468;40.116;18.296;2022-07-10T03:33:37;21.10;68.20
51811;DHT22;52468;40.116;18.296;2022-07-10T03:36:05;21.10;68.60
51811;DHT22;52468;40.116;18.296;2022-07-10T03:38:33;21.10;68.90
51811;DHT22;52468;40.116;18.296;2022-07-10T03:41:00;21.00;69.20
51811;DHT22;52468;40.116;18.296;2022-07-10T03:43:28;21.10;69.40
51811;DHT22;52468;40.116;18.296;2022-07-10T03:45:57;21.10;69.60
51811;DHT22;52468;40.116;18.296;2022-07-10T03:48:25;21.20;69.60
51811;DHT22;52468;40.116;18.296;2022-07-10T03:50:53;21.30;69.40
51811;DHT22;52468;40.116;18.296;2022-07-10T03:53:21;21.40;69.10
51811;DHT22;52468;40.116;18.296;2022-07-10T03:55:48;21.50;69.00
51811;DHT22;52468;40.116;18.296;2022-07-10T03:58:16;21.60;68.30
51811;DHT22;52468;40.116;18.296;2022-07-10T04:00:44;21.80;67.90
51811;DHT22;52468;40.116;18.296;2022-07-10T04:03:12;22.00;67.10
51811;DHT22;52468;40.116;18.296;2022-07-10T04:05:41;22.20;66.10
51811;DHT22;52468;40.116;18.296;2022-07-10T04:08:09;22.50;65.10
51811;DHT22;52468;40.116;18.296;2022-07-10T04:10:37;22.50;64.80
51811;DHT22;52468;40.116;18.296;2022-07-10T04:13:04;22.70;64.60
51811;DHT22;52468;40.116;18.296;2022-07-10T04:15:32;22.80;64.40
51811;DHT22;52468;40.116;18.296;2022-07-10T04:18:00;23.00;63.80
51811;DHT22;52468;40.116;18.296;2022-07-10T04:20:28;23.10;63.60
51811;DHT22;52468;40.116;18.296;2022-07-10T04:22:56;23.10;63.20
51811;DHT22;52468;40.116;18.296;2022-07-10T04:25:24;23.20;63.30
51811;DHT22;52468;40.116;18.296;2022-07-10T04:27:52;23.40;62.90
51811;DHT22;52468;40.116;18.296;2022-07-10T04:30:20;23.50;62.60
51811;DHT22;52468;40.116;18.296;2022-07-10T04:32:48;23.60;62.20
51811;DHT22;52468;40.116;18.296;2022-07-10T04:35:15;23.60;62.10
51811;DHT22;52468;40.116;18.296;2022-07-10T04:37:43;23.70;62.00
51811;DHT22;52468;40.116;18.296;2022-07-10T04:40:11;23.80;61.50
51811;DHT22;52468;40.116;18.296;2022-07-10T04:42:39;23.80;61.70
51811;DHT22;52468;40.116;18.296;2022-07-10T04:45:07;23.90;61.60
51811;DHT22;52468;40.116;18.296;2022-07-10T04:47:35;24.00;61.10
51811;DHT22;52468;40.116;18.296;2022-07-10T04:50:03;24.00;61.00
51811;DHT22;52468;40.116;18.296;2022-07-10T04:52:31;24.20;60.30
51811;DHT22;52468;40.116;18.296;2022-07-10T04:54:59;24.20;60.10
51811;DHT22;52468;40.116;18.296;2022-07-10T04:57:27;24.20;59.90
51811;DHT22;52468;40.116;18.296;2022-07-10T04:59:55;24.30;59.90
51811;DHT22;52468;40.116;18.296;2022-07-10T05:02:24;24.50;59.00
51811;DHT22;52468;40.116;18.296;2022-07-10T05:04:52;24.80;58.30
51811;DHT22;52468;40.116;18.296;2022-07-10T05:07:19;25.00;57.30
51811;DHT22;52468;40.116;18.296;2022-07-10T05:09:47;25.20;56.70
51811;DHT22;52468;40.116;18.296;2022-07-10T05:12:15;25.20;56.40
51811;DHT22;52468;40.116;18.296;2022-07-10T05:14:43;25.50;56.00
51811;DHT22;52468;40.116;18.296;2022-07-10T05:17:11;25.60;55.60
51811;DHT22;52468;40.116;18.296;2022-07-10T05:19:38;25.80;55.20
51811;DHT22;52468;40.116;18.296;2022-07-10T05:22:06;26.00;54.80
51811;DHT22;52468;40.116;18.296;2022-07-10T05:24:35;26.00;54.70
51811;DHT22;52468;40.116;18.296;2022-07-10T05:27:03;26.10;54.40
51811;DHT22;52468;40.116;18.296;2022-07-10T05:29:31;26.10;53.60
51811;DHT22;52468;40.116;18.296;2022-07-10T05:31:59;26.10;53.70
51811;DHT22;52468;40.116;18.296;2022-07-10T05:34:27;26.10;53.40
51811;DHT22;52468;40.116;18.296;2022-07-10T05:36:55;26.20;53.10
51811;DHT22;52468;40.116;18.296;2022-07-10T05:39:22;26.40;52.50
51811;DHT22;52468;40.116;18.296;2022-07-10T05:41:53;26.40;52.50
51811;DHT22;52468;40.116;18.296;2022-07-10T05:44:23;26.50;52.20
51811;DHT22;52468;40.116;18.296;2022-07-10T05:46:51;26.50;52.20
51811;DHT22;52468;40.116;18.296;2022-07-10T05:49:19;26.50;51.90
51811;DHT22;52468;40.116;18.296;2022-07-10T05:51:47;26.60;51.40
51811;DHT22;52468;40.116;18.296;2022-07-10T05:54:15;26.60;51.10
51811;DHT22;52468;40.116;18.296;2022-07-10T05:56:43;26.60;50.80
51811;DHT22;52468;40.116;18.296;2022-07-10T05:59:10;26.80;50.50
51811;DHT22;52468;40.116;18.296;2022-07-10T06:01:38;27.00;50.20
51811;DHT22;52468;40.116;18.296;2022-07-10T06:04:06;27.10;49.70
51811;DHT22;52468;40.116;18.296;2022-07-10T06:06:34;27.40;48.70
51811;DHT22;52468;40.116;18.296;2022-07-10T06:09:02;27.50;46.30
51811;DHT22;52468;40.116;18.296;2022-07-10T06:11:30;27.40;45.10
51811;DHT22;52468;40.116;18.296;2022-07-10T06:13:58;27.50;45.00
51811;DHT22;52468;40.116;18.296;2022-07-10T06:16:26;27.50;45.00
51811;DHT22;52468;40.116;18.296;2022-07-10T06:18:54;27.40;45.40
51811;DHT22;52468;40.116;18.296;2022-07-10T06:21:21;27.50;45.50
51811;DHT22;52468;40.116;18.296;2022-07-10T06:23:50;27.50;45.90
51811;DHT22;52468;40.116;18.296;2022-07-10T06:26:18;27.70;45.40
51811;DHT22;52468;40.116;18.296;2022-07-10T06:28:46;27.80;45.40
51811;DHT22;52468;40.116;18.296;2022-07-10T06:31:14;28.00;45.30
51811;DHT22;52468;40.116;18.296;2022-07-10T06:33:42;28.10;45.10
51811;DHT22;52468;40.116;18.296;2022-07-10T06:36:10;28.30;44.60
51811;DHT22;52468;40.116;18.296;2022-07-10T06:38:39;28.40;43.30
51811;DHT22;52468;40.116;18.296;2022-07-10T06:41:09;28.50;42.90
51811;DHT22;52468;40.116;18.296;2022-07-10T06:43:37;28.50;43.40
51811;DHT22;52468;40.116;18.296;2022-07-10T06:46:05;28.50;43.70
51811;DHT22;52468;40.116;18.296;2022-07-10T06:48:33;28.10;43.60
51811;DHT22;52468;40.116;18.296;2022-07-10T06:51:05;28.10;43.10
51811;DHT22;52468;40.116;18.296;2022-07-10T06:53:34;28.10;42.80
51811;DHT22;52468;40.116;18.296;2022-07-10T06:56:02;28.10;42.00
51811;DHT22;52468;40.116;18.296;2022-07-10T06:58:30;28.10;41.30
51811;DHT22;52468;40.116;18.296;2022-07-10T07:00:58;28.30;40.80
51811;DHT22;52468;40.116;18.296;2022-07-10T07:03:26;28.20;41.90
51811;DHT22;52468;40.116;18.296;2022-07-10T07:05:54;28.30;42.30
51811;DHT22;52468;40.116;18.296;2022-07-10T07:08:21;28.30;41.30
51811;DHT22;52468;40.116;18.296;2022-07-10T07:10:49;28.40;41.00
51811;DHT22;52468;40.116;18.296;2022-07-10T07:13:17;28.30;41.50
51811;DHT22;52468;40.116;18.296;2022-07-10T07:15:45;28.30;41.60
51811;DHT22;52468;40.116;18.296;2022-07-10T07:18:20;28.50;41.50
51811;DHT22;52468;40.116;18.296;2022-07-10T07:20:49;28.50;40.20
51811;DHT22;52468;40.116;18.296;2022-07-10T07:23:36;28.60;39.90
51811;DHT22;52468;40.116;18.296;2022-07-10T07:26:03;28.80;39.90
51811;DHT22;52468;40.116;18.296;2022-07-10T07:28:31;28.70;39.60
51811;DHT22;52468;40.116;18.296;2022-07-10T07:30:59;28.60;40.00
51811;DHT22;52468;40.116;18.296;2022-07-10T07:33:27;28.80;40.20
51811;DHT22;52468;40.116;18.296;2022-07-10T07:35:55;29.10;40.20
51811;DHT22;52468;40.116;18.296;2022-07-10T07:38:23;29.20;39.80
51811;DHT22;52468;40.116;18.296;2022-07-10T07:40:50;28.80;40.90
51811;DHT22;52468;40.116;18.296;2022-07-10T07:43:18;28.50;41.10
51811;DHT22;52468;40.116;18.296;2022-07-10T07:45:46;28.70;40.90
51811;DHT22;52468;40.116;18.296;2022-07-10T07:48:15;29.00;40.20
51811;DHT22;52468;40.116;18.296;2022-07-10T07:50:42;29.10;39.40
51811;DHT22;52468;40.116;18.296;2022-07-10T07:53:10;29.10;39.80
51811;DHT22;52468;40.116;18.296;2022-07-10T07:55:39;28.90;40.90
51811;DHT22;52468;40.116;18.296;2022-07-10T07:58:07;29.00;41.00
51811;DHT22;52468;40.116;18.296;2022-07-10T08:00:35;29.00;40.20
51811;DHT22;52468;40.116;18.296;2022-07-10T08:03:03;29.30;39.90
51811;DHT22;52468;40.116;18.296;2022-07-10T08:05:31;29.50;39.50
51811;DHT22;52468;40.116;18.296;2022-07-10T08:08:00;29.50;39.90
51811;DHT22;52468;40.116;18.296;2022-07-10T08:10:32;29.50;40.50
51811;DHT22;52468;40.116;18.296;2022-07-10T08:13:00;29.20;40.00
51811;DHT22;52468;40.116;18.296;2022-07-10T08:15:29;29.20;39.90
51811;DHT22;52468;40.116;18.296;2022-07-10T08:17:58;29.20;39.70
51811;DHT22;52468;40.116;18.296;2022-07-10T08:20:26;29.10;38.60
51811;DHT22;52468;40.116;18.296;2022-07-10T08:22:54;29.10;38.30
51811;DHT22;52468;40.116;18.296;2022-07-10T08:25:29;29.30;37.90
51811;DHT22;52468;40.116;18.296;2022-07-10T08:28:02;29.80;37.30
51811;DHT22;52468;40.116;18.296;2022-07-10T08:30:31;29.80;36.40
51811;DHT22;52468;40.116;18.296;2022-07-10T08:32:58;29.80;36.40
51811;DHT22;52468;40.116;18.296;2022-07-10T08:35:26;29.80;37.00
51811;DHT22;52468;40.116;18.296;2022-07-10T08:37:54;29.80;37.60
51811;DHT22;52468;40.116;18.296;2022-07-10T08:40:22;30.00;37.50
51811;DHT22;52468;40.116;18.296;2022-07-10T08:42:51;29.90;39.00
51811;DHT22;52468;40.116;18.296;2022-07-10T08:45:19;29.90;38.30
51811;DHT22;52468;40.116;18.296;2022-07-10T08:47:46;30.00;38.50
51811;DHT22;52468;40.116;18.296;2022-07-10T08:50:23;30.40;37.60
51811;DHT22;52468;40.116;18.296;2022-07-10T08:53:08;30.80;36.90
51811;DHT22;52468;40.116;18.296;2022-07-10T08:55:36;30.60;37.40
51811;DHT22;52468;40.116;18.296;2022-07-10T08:58:05;30.50;37.80
51811;DHT22;52468;40.116;18.296;2022-07-10T09:00:35;30.50;36.90
51811;DHT22;52468;40.116;18.296;2022-07-10T09:03:03;30.50;36.50
51811;DHT22;52468;40.116;18.296;2022-07-10T09:05:31;30.40;36.40
51811;DHT22;52468;40.116;18.296;2022-07-10T09:07:59;30.30;35.00
51811;DHT22;52468;40.116;18.296;2022-07-10T09:10:28;30.20;35.60
51811;DHT22;52468;40.116;18.296;2022-07-10T09:13:00;30.30;35.70
51811;DHT22;52468;40.116;18.296;2022-07-10T09:15:30;30.30;35.70
51811;DHT22;52468;40.116;18.296;2022-07-10T09:18:02;30.30;35.00
51811;DHT22;52468;40.116;18.296;2022-07-10T09:20:36;30.60;34.60
51811;DHT22;52468;40.116;18.296;2022-07-10T09:23:21;30.60;33.60
51811;DHT22;52468;40.116;18.296;2022-07-10T09:25:51;30.60;33.30
51811;DHT22;52468;40.116;18.296;2022-07-10T09:28:21;30.70;32.50
51811;DHT22;52468;40.116;18.296;2022-07-10T09:30:49;30.70;32.70
51811;DHT22;52468;40.116;18.296;2022-07-10T09:33:21;30.70;33.40
51811;DHT22;52468;40.116;18.296;2022-07-10T09:36:09;30.60;33.20
51811;DHT22;52468;40.116;18.296;2022-07-10T09:41:23;30.60;34.10
51811;DHT22;52468;40.116;18.296;2022-07-10T09:46:37;30.60;34.40
51811;DHT22;52468;40.116;18.296;2022-07-10T09:49:10;30.60;33.80
51811;DHT22;52468;40.116;18.296;2022-07-10T09:51:40;30.70;33.40
51811;DHT22;52468;40.116;18.296;2022-07-10T09:54:13;30.60;33.80
51811;DHT22;52468;40.116;18.296;2022-07-10T09:56:44;30.50;33.40
51811;DHT22;52468;40.116;18.296;2022-07-10T09:59:14;30.50;34.00
51811;DHT22;52468;40.116;18.296;2022-07-10T10:01:51;30.60;34.20
51811;DHT22;52468;40.116;18.296;2022-07-10T10:04:21;30.80;34.10
51811;DHT22;52468;40.116;18.296;2022-07-10T10:06:55;30.80;34.00
51811;DHT22;52468;40.116;18.296;2022-07-10T10:09:34;31.00;33.90
51811;DHT22;52468;40.116;18.296;2022-07-10T10:12:21;31.20;34.00
51811;DHT22;52468;40.116;18.296;2022-07-10T10:14:51;31.50;33.70
51811;DHT22;52468;40.116;18.296;2022-07-10T10:17:20;31.40;33.60
51811;DHT22;52468;40.116;18.296;2022-07-10T10:19:50;31.30;34.10
51811;DHT22;52468;40.116;18.296;2022-07-10T10:22:44;31.40;33.90
51811;DHT22;52468;40.116;18.296;2022-07-10T10:25:13;31.40;32.90
51811;DHT22;52468;40.116;18.296;2022-07-10T10:27:45;31.50;32.50
51811;DHT22;52468;40.116;18.296;2022-07-10T10:30:13;31.50;32.40
51811;DHT22;52468;40.116;18.296;2022-07-10T10:32:41;31.70;32.80
51811;DHT22;52468;40.116;18.296;2022-07-10T10:35:09;31.80;33.00
51811;DHT22;52468;40.116;18.296;2022-07-10T10:37:40;32.00;32.30
51811;DHT22;52468;40.116;18.296;2022-07-10T10:40:30;32.20;31.80
51811;DHT22;52468;40.116;18.296;2022-07-10T10:43:14;32.50;31.30
51811;DHT22;52468;40.116;18.296;2022-07-10T10:45:44;32.40;31.70
51811;DHT22;52468;40.116;18.296;2022-07-10T10:48:14;32.20;32.90
51811;DHT22;52468;40.116;18.296;2022-07-10T10:51:02;32.00;33.80
51811;DHT22;52468;40.116;18.296;2022-07-10T10:53:30;32.00;33.80
51811;DHT22;52468;40.116;18.296;2022-07-10T10:58:38;32.50;33.80
51811;DHT22;52468;40.116;18.296;2022-07-10T11:06:50;32.60;34.60
51811;DHT22;52468;40.116;18.296;2022-07-10T11:09:32;32.40;35.30
51811;DHT22;52468;40.116;18.296;2022-07-10T11:14:34;32.60;34.00
51811;DHT22;52468;40.116;18.296;2022-07-10T11:17:04;32.50;33.80
51811;DHT22;52468;40.116;18.296;2022-07-10T11:19:33;32.10;35.20
51811;DHT22;52468;40.116;18.296;2022-07-10T11:28:04;32.50;34.60
51811;DHT22;52468;40.116;18.296;2022-07-10T11:30:51;32.70;34.70
51811;DHT22;52468;40.116;18.296;2022-07-10T11:33:21;33.00;34.70
51811;DHT22;52468;40.116;18.296;2022-07-10T11:35:51;32.90;33.80
51811;DHT22;52468;40.116;18.296;2022-07-10T11:40:48;32.90;34.10
51811;DHT22;52468;40.116;18.296;2022-07-10T11:43:17;32.60;33.60
51811;DHT22;52468;40.116;18.296;2022-07-10T11:45:44;32.40;33.30
51811;DHT22;52468;40.116;18.296;2022-07-10T11:48:19;32.10;33.50
51811;DHT22;52468;40.116;18.296;2022-07-10T11:50:47;32.10;33.40
51811;DHT22;52468;40.116;18.296;2022-07-10T11:53:26;32.00;33.30
51811;DHT22;52468;40.116;18.296;2022-07-10T11:55:54;32.00;33.60
51811;DHT22;52468;40.116;18.296;2022-07-10T11:58:22;32.00;33.90
51811;DHT22;52468;40.116;18.296;2022-07-10T12:01:01;32.40;33.70
51811;DHT22;52468;40.116;18.296;2022-07-10T12:03:32;32.40;33.50
51811;DHT22;52468;40.116;18.296;2022-07-10T12:06:05;32.80;33.70
51811;DHT22;52468;40.116;18.296;2022-07-10T12:08:46;32.90;33.70
51811;DHT22;52468;40.116;18.296;2022-07-10T12:11:16;32.70;32.90
51811;DHT22;52468;40.116;18.296;2022-07-10T12:13:48;32.40;32.70
51811;DHT22;52468;40.116;18.296;2022-07-10T12:16:16;32.50;33.60
51811;DHT22;52468;40.116;18.296;2022-07-10T12:18:45;32.50;34.30
51811;DHT22;52468;40.116;18.296;2022-07-10T12:21:14;32.80;33.80
51811;DHT22;52468;40.116;18.296;2022-07-10T12:23:44;32.60;33.70
51811;DHT22;52468;40.116;18.296;2022-07-10T12:26:13;32.80;33.30
51811;DHT22;52468;40.116;18.296;2022-07-10T12:28:54;33.00;32.80
51811;DHT22;52468;40.116;18.296;2022-07-10T12:31:27;33.30;31.20
51811;DHT22;52468;40.116;18.296;2022-07-10T12:34:04;33.50;32.30
51811;DHT22;52468;40.116;18.296;2022-07-10T12:39:11;33.20;32.10
51811;DHT22;52468;40.116;18.296;2022-07-10T12:42:05;33.20;31.40
51811;DHT22;52468;40.116;18.296;2022-07-10T12:47:28;33.80;29.70
51811;DHT22;52468;40.116;18.296;2022-07-10T12:49:58;34.20;29.20
51811;DHT22;52468;40.116;18.296;2022-07-10T12:52:29;34.90;28.10
51811;DHT22;52468;40.116;18.296;2022-07-10T12:57:57;37.10;26.10
51811;DHT22;52468;40.116;18.296;2022-07-10T13:03:06;37.90;24.00
51811;DHT22;52468;40.116;18.296;2022-07-10T13:05:39;39.00;23.00
51811;DHT22;52468;40.116;18.296;2022-07-10T13:10:54;40.30;21.90
51811;DHT22;52468;40.116;18.296;2022-07-10T13:13:22;40.10;22.30
51811;DHT22;52468;40.116;18.296;2022-07-10T13:15:50;39.80;22.10
51811;DHT22;52468;40.116;18.296;2022-07-10T13:18:21;40.20;21.40
51811;DHT22;52468;40.116;18.296;2022-07-10T13:20:51;40.30;21.10
51811;DHT22;52468;40.116;18.296;2022-07-10T13:23:24;40.00;21.60
51811;DHT22;52468;40.116;18.296;2022-07-10T13:25:53;39.90;21.70
51811;DHT22;52468;40.116;18.296;2022-07-10T13:28:21;39.80;21.00
51811;DHT22;52468;40.116;18.296;2022-07-10T13:30:48;40.20;20.70
51811;DHT22;52468;40.116;18.296;2022-07-10T13:33:16;40.90;19.70
51811;DHT22;52468;40.116;18.296;2022-07-10T13:35:45;41.30;19.20
51811;DHT22;52468;40.116;18.296;2022-07-10T13:38:13;41.30;19.10
51811;DHT22;52468;40.116;18.296;2022-07-10T13:40:43;41.30;19.20
51811;DHT22;52468;40.116;18.296;2022-07-10T13:43:12;41.00;19.80
51811;DHT22;52468;40.116;18.296;2022-07-10T13:45:40;40.00;20.60
51811;DHT22;52468;40.116;18.296;2022-07-10T13:48:13;39.70;20.80
51811;DHT22;52468;40.116;18.296;2022-07-10T13:50:42;40.10;20.60
51811;DHT22;52468;40.116;18.296;2022-07-10T13:53:10;40.20;20.40
51811;DHT22;52468;40.116;18.296;2022-07-10T13:55:38;40.30;20.60
51811;DHT22;52468;40.116;18.296;2022-07-10T13:58:06;40.10;20.70
51811;DHT22;52468;40.116;18.296;2022-07-10T14:00:35;40.20;20.60
51811;DHT22;52468;40.116;18.296;2022-07-10T14:03:04;40.60;20.10
51811;DHT22;52468;40.116;18.296;2022-07-10T14:05:33;41.00;20.00
51811;DHT22;52468;40.116;18.296;2022-07-10T14:08:01;40.50;20.20
51811;DHT22;52468;40.116;18.296;2022-07-10T14:10:30;40.20;20.00
51811;DHT22;52468;40.116;18.296;2022-07-10T14:12:58;40.00;19.90
51811;DHT22;52468;40.116;18.296;2022-07-10T14:15:26;40.20;19.90
51811;DHT22;52468;40.116;18.296;2022-07-10T14:17:54;40.60;19.70
51811;DHT22;52468;40.116;18.296;2022-07-10T14:20:22;40.50;19.50
51811;DHT22;52468;40.116;18.296;2022-07-10T14:22:50;40.30;19.70
51811;DHT22;52468;40.116;18.296;2022-07-10T14:25:21;40.50;19.50
51811;DHT22;52468;40.116;18.296;2022-07-10T14:27:50;40.50;19.80
51811;DHT22;52468;40.116;18.296;2022-07-10T14:30:18;40.90;19.50
51811;DHT22;52468;40.116;18.296;2022-07-10T14:32:46;40.40;19.80
51811;DHT22;52468;40.116;18.296;2022-07-10T14:35:13;40.50;19.80
51811;DHT22;52468;40.116;18.296;2022-07-10T14:37:41;40.40;20.20
51811;DHT22;52468;40.116;18.296;2022-07-10T14:40:09;40.20;20.20
51811;DHT22;52468;40.116;18.296;2022-07-10T14:42:37;40.30;20.10
51811;DHT22;52468;40.116;18.296;2022-07-10T14:45:07;40.50;20.10
51811;DHT22;52468;40.116;18.296;2022-07-10T14:47:41;40.50;20.10
51811;DHT22;52468;40.116;18.296;2022-07-10T14:50:09;40.00;20.20
51811;DHT22;52468;40.116;18.296;2022-07-10T14:52:37;40.10;20.30
51811;DHT22;52468;40.116;18.296;2022-07-10T14:55:05;40.30;20.00
51811;DHT22;52468;40.116;18.296;2022-07-10T14:57:35;40.00;20.00
51811;DHT22;52468;40.116;18.296;2022-07-10T15:00:03;39.70;20.70
51811;DHT22;52468;40.116;18.296;2022-07-10T15:02:31;40.00;20.30
51811;DHT22;52468;40.116;18.296;2022-07-10T15:04:59;40.70;19.50
51811;DHT22;52468;40.116;18.296;2022-07-10T15:07:29;40.80;19.50
51811;DHT22;52468;40.116;18.296;2022-07-10T15:09:57;40.40;20.00
51811;DHT22;52468;40.116;18.296;2022-07-10T15:12:24;40.50;20.00
51811;DHT22;52468;40.116;18.296;2022-07-10T15:14:52;40.00;20.30
51811;DHT22;52468;40.116;18.296;2022-07-10T15:17:20;40.10;19.80
51811;DHT22;52468;40.116;18.296;2022-07-10T15:19:48;40.30;20.10
51811;DHT22;52468;40.116;18.296;2022-07-10T15:22:16;40.30;19.50
51811;DHT22;52468;40.116;18.296;2022-07-10T15:24:45;40.40;19.50
51811;DHT22;52468;40.116;18.296;2022-07-10T15:27:13;40.00;19.90
51811;DHT22;52468;40.116;18.296;2022-07-10T15:29:41;39.80;20.30
51811;DHT22;52468;40.116;18.296;2022-07-10T15:32:09;40.00;20.60
51811;DHT22;52468;40.116;18.296;2022-07-10T15:34:38;40.20;20.80
51811;DHT22;52468;40.116;18.296;2022-07-10T15:37:06;40.40;20.60
51811;DHT22;52468;40.116;18.296;2022-07-10T15:39:35;40.20;20.60
51811;DHT22;52468;40.116;18.296;2022-07-10T15:42:12;39.60;21.30
51811;DHT22;52468;40.116;18.296;2022-07-10T15:44:40;39.00;22.00
51811;DHT22;52468;40.116;18.296;2022-07-10T15:47:10;38.80;22.10
51811;DHT22;52468;40.116;18.296;2022-07-10T15:49:39;39.10;21.70
51811;DHT22;52468;40.116;18.296;2022-07-10T15:52:07;39.90;20.90
51811;DHT22;52468;40.116;18.296;2022-07-10T15:54:35;39.90;20.20
51811;DHT22;52468;40.116;18.296;2022-07-10T15:57:03;39.80;20.20
51811;DHT22;52468;40.116;18.296;2022-07-10T15:59:31;39.50;20.30
51811;DHT22;52468;40.116;18.296;2022-07-10T16:02:00;39.00;20.90
51811;DHT22;52468;40.116;18.296;2022-07-10T16:04:28;39.20;20.90
51811;DHT22;52468;40.116;18.296;2022-07-10T16:06:56;38.90;21.60